createdAt,value
2023-03-22T00:00:22.586Z,94894.00
2023-03-22T00:04:22.789Z,94896.00
2023-03-22T00:08:22.773Z,94894.00
2023-03-22T00:12:22.703Z,94892.00
2023-03-22T00:16:22.755Z,94892.00
2023-03-22T00:20:22.680Z,94894.00
2023-03-22T00:24:22.635Z,94896.00
2023-03-22T00:28:22.589Z,94894.00
2023-03-22T00:32:22.554Z,94885.00
2023-03-22T00:36:22.513Z,94881.00
2023-03-22T00:40:22.483Z,94877.00
2023-03-22T00:44:22.449Z,94875.00
2023-03-22T00:48:22.632Z,94875.00
2023-03-22T00:52:22.554Z,94875.00
2023-03-22T00:56:22.521Z,94871.00
2023-03-22T01:00:22.493Z,94869.00
2023-03-22T01:04:22.457Z,94871.00
2023-03-22T01:08:22.415Z,94871.00
2023-03-22T01:12:22.405Z,94873.00
2023-03-22T01:16:22.461Z,94871.00
2023-03-22T01:20:22.322Z,94871.00
2023-03-22T01:24:22.278Z,94871.00
2023-03-22T01:28:22.489Z,94871.00
2023-03-22T01:32:22.364Z,94873.00
2023-03-22T01:36:22.295Z,94871.00
2023-03-22T01:40:22.300Z,94869.00
2023-03-22T01:44:22.243Z,94867.00
2023-03-22T01:48:22.299Z,94869.00
2023-03-22T01:52:22.157Z,94869.00
2023-03-22T01:56:22.134Z,94867.00
2023-03-22T02:00:22.101Z,94861.00
2023-03-22T02:04:22.084Z,94859.00
2023-03-22T02:08:22.246Z,94857.00
2023-03-22T02:12:22.190Z,94855.00
2023-03-22T02:16:22.169Z,94857.00
2023-03-22T02:20:22.137Z,94855.00
2023-03-22T02:24:22.094Z,94849.00
2023-03-22T02:28:22.076Z,94853.00
2023-03-22T02:32:22.044Z,94851.00
2023-03-22T02:36:21.986Z,94851.00
2023-03-22T02:40:22.009Z,94847.00
2023-03-22T02:44:21.912Z,94859.00
2023-03-22T02:48:21.875Z,94857.00
2023-03-22T02:52:22.040Z,94859.00
2023-03-22T02:56:22.168Z,94857.00
2023-03-22T03:00:22.433Z,94857.00
2023-03-22T03:04:22.645Z,94855.00
2023-03-22T03:08:22.684Z,94853.00
2023-03-22T03:12:22.850Z,94851.00
2023-03-22T03:16:23.032Z,94849.00
2023-03-22T03:20:23.149Z,94843.00
2023-03-22T03:24:23.342Z,94845.00
2023-03-22T03:28:23.567Z,94838.00
2023-03-22T03:32:23.786Z,94841.00
2023-03-22T03:36:23.998Z,94843.00
2023-03-22T03:40:24.200Z,94849.00
2023-03-22T03:44:24.350Z,94849.00
2023-03-22T03:48:24.548Z,94845.00
2023-03-22T03:52:24.667Z,94849.00
2023-03-22T03:56:24.756Z,94845.00
2023-03-22T04:00:24.851Z,94847.00
2023-03-22T04:04:25.089Z,94841.00
2023-03-22T04:08:25.136Z,94845.00
2023-03-22T04:12:25.310Z,94845.00
2023-03-22T04:16:25.494Z,94843.00
2023-03-22T04:20:25.625Z,94845.00
2023-03-22T04:24:25.842Z,94843.00
2023-03-22T04:28:26.003Z,94838.00
2023-03-22T04:32:26.162Z,94838.00
2023-03-22T04:36:26.290Z,94838.00
2023-03-22T04:40:26.357Z,94841.00
2023-03-22T04:44:26.564Z,94838.00
2023-03-22T04:48:26.537Z,94843.00
2023-03-22T04:52:26.629Z,94841.00
2023-03-22T04:56:26.717Z,94843.00
2023-03-22T05:00:26.918Z,94849.00
2023-03-22T05:04:26.851Z,94853.00
2023-03-22T05:08:26.910Z,94849.00
2023-03-22T05:12:26.973Z,94855.00
2023-03-22T05:16:27.094Z,94857.00
2023-03-22T05:20:27.688Z,94859.00
2023-03-22T05:24:27.008Z,94861.00
2023-03-22T05:28:26.941Z,94863.00
2023-03-22T05:32:26.990Z,94867.00
2023-03-22T05:36:26.968Z,94867.00
2023-03-22T05:40:27.008Z,94873.00
2023-03-22T05:44:26.984Z,94875.00
2023-03-22T05:48:26.978Z,94875.00
2023-03-22T05:52:26.991Z,94871.00
2023-03-22T05:56:26.973Z,94871.00
2023-03-22T06:00:26.964Z,94873.00
2023-03-22T06:04:27.073Z,94875.00
2023-03-22T06:08:27.088Z,94873.00
2023-03-22T06:12:29.597Z,94875.00
2023-03-22T06:16:27.203Z,94877.00
2023-03-22T06:20:27.136Z,94879.00
2023-03-22T06:24:27.106Z,94877.00
2023-03-22T06:28:27.058Z,94877.00
2023-03-22T06:32:27.048Z,94877.00
2023-03-22T06:36:26.969Z,94877.00
2023-03-22T06:40:27.240Z,94875.00
2023-03-22T06:44:27.238Z,94873.00
2023-03-22T06:48:27.359Z,94871.00
2023-03-22T06:52:27.248Z,94873.00
2023-03-22T06:56:26.798Z,94867.00
2023-03-22T07:00:27.219Z,94871.00
2023-03-22T07:04:26.791Z,94873.00
2023-03-22T07:08:26.746Z,94877.00
2023-03-22T07:12:26.670Z,94875.00
2023-03-22T07:16:26.816Z,94877.00
2023-03-22T07:20:26.605Z,94879.00
2023-03-22T07:24:26.757Z,94877.00
2023-03-22T07:28:26.854Z,94879.00
2023-03-22T07:32:26.794Z,94875.00
2023-03-22T07:36:26.646Z,94879.00
2023-03-22T07:40:26.619Z,94873.00
2023-03-22T07:44:26.753Z,94867.00
2023-03-22T07:48:26.572Z,94867.00
2023-03-22T07:52:26.781Z,94873.00
2023-03-22T07:56:26.510Z,94871.00
2023-03-22T08:00:26.455Z,94863.00
2023-03-22T08:04:26.416Z,94859.00
2023-03-22T08:08:26.390Z,94855.00
2023-03-22T08:12:26.380Z,94859.00
2023-03-22T08:16:26.908Z,94853.00
2023-03-22T08:20:26.321Z,94849.00
2023-03-22T08:24:26.256Z,94845.00
2023-03-22T08:28:26.205Z,94839.00
2023-03-22T08:32:26.269Z,94845.00
2023-03-22T08:36:26.768Z,94839.00
2023-03-22T08:40:26.186Z,94834.00
2023-03-22T08:44:26.278Z,94839.00
2023-03-22T08:48:26.808Z,94830.00
2023-03-22T08:52:26.772Z,94820.00
2023-03-22T08:56:26.775Z,94818.00
2023-03-22T09:00:33.983Z,94810.00
2023-03-22T09:04:27.973Z,94806.00
2023-03-22T09:08:26.976Z,94794.00
2023-03-22T09:12:27.265Z,94790.00
2023-03-22T09:16:26.959Z,94790.00
2023-03-22T09:20:26.880Z,94783.00
2023-03-22T09:24:28.193Z,94771.00
2023-03-22T09:28:26.898Z,94767.00
2023-03-22T09:32:26.751Z,94763.00
2023-03-22T09:36:26.703Z,94757.00
2023-03-22T09:40:26.854Z,94747.00
2023-03-22T09:44:26.800Z,94743.00
2023-03-22T09:48:26.829Z,94736.00
2023-03-22T09:52:26.837Z,94726.00
2023-03-22T09:56:26.532Z,94724.00
2023-03-22T10:00:26.626Z,94716.00
2023-03-22T10:04:26.630Z,94710.00
2023-03-22T10:08:26.797Z,94704.00
2023-03-22T10:12:26.374Z,94696.00
2023-03-22T10:16:26.443Z,94689.00
2023-03-22T10:20:26.808Z,94681.00
2023-03-22T10:24:26.320Z,94675.00
2023-03-22T10:28:26.376Z,94669.00
2023-03-22T10:32:26.511Z,94661.00
2023-03-22T10:36:26.795Z,94661.00
2023-03-22T10:40:27.324Z,94655.00
2023-03-22T10:44:27.353Z,94647.00
2023-03-22T10:48:27.238Z,94645.00
2023-03-22T10:52:27.266Z,94643.00
2023-03-22T10:56:27.856Z,94638.00
2023-03-22T11:00:27.495Z,94624.00
2023-03-22T11:04:27.547Z,94620.00
2023-03-22T11:08:27.652Z,94614.00
2023-03-22T11:12:27.841Z,94612.00
2023-03-22T11:16:27.768Z,94606.00
2023-03-22T11:20:29.824Z,94596.00
2023-03-22T11:24:27.713Z,94594.00
2023-03-22T11:28:27.681Z,94590.00
2023-03-22T11:32:27.709Z,94585.00
2023-03-22T11:36:27.577Z,94575.00
2023-03-22T11:40:27.825Z,94569.00
2023-03-22T11:44:27.850Z,94559.00
2023-03-22T11:48:27.685Z,94551.00
2023-03-22T11:52:27.444Z,94545.00
2023-03-22T11:56:27.414Z,94534.00
2023-03-22T12:00:27.393Z,94528.00
2023-03-22T12:04:27.406Z,94524.00
2023-03-22T12:08:27.401Z,94522.00
2023-03-22T12:12:27.641Z,94512.00
2023-03-22T12:16:27.891Z,94504.00
2023-03-22T12:20:27.940Z,94498.00
2023-03-22T12:24:28.055Z,94487.00
2023-03-22T12:28:28.401Z,94481.00
2023-03-22T12:32:28.268Z,94475.00
2023-03-22T12:36:28.871Z,94473.00
2023-03-22T12:40:28.841Z,94459.00
2023-03-22T12:44:28.773Z,94453.00
2023-03-22T12:48:28.872Z,94445.00
2023-03-22T12:52:34.721Z,94436.00
2023-03-22T12:56:29.693Z,94430.00
2023-03-22T13:00:28.755Z,94426.00
2023-03-22T13:04:28.840Z,94420.00
2023-03-22T13:08:30.273Z,94416.00
2023-03-22T13:12:29.016Z,94408.00
2023-03-22T13:16:29.016Z,94414.00
2023-03-22T13:20:28.911Z,94406.00
2023-03-22T13:24:30.252Z,94396.00
2023-03-22T13:28:29.121Z,94394.00
2023-03-22T13:32:29.265Z,94389.00
2023-03-22T13:36:29.503Z,94385.00
2023-03-22T13:40:29.725Z,94369.00
2023-03-22T13:44:29.873Z,94365.00
2023-03-22T13:48:30.242Z,94367.00
2023-03-22T13:52:30.195Z,94361.00
2023-03-22T13:56:30.309Z,94346.00
2023-03-22T14:00:30.434Z,94344.00
2023-03-22T14:04:30.543Z,94338.00
2023-03-22T14:08:30.584Z,94334.00
2023-03-22T14:12:30.604Z,94332.00
2023-03-22T14:16:30.669Z,94326.00
2023-03-22T14:20:30.600Z,94322.00
2023-03-22T14:49:30.803Z,94297.00
2023-03-22T14:53:30.782Z,94295.00
2023-03-22T14:57:36.718Z,94297.00
2023-03-22T15:01:31.748Z,94287.00
2023-03-22T15:05:30.725Z,94285.00
2023-03-22T15:09:30.660Z,94283.00
2023-03-22T15:13:30.641Z,94277.00
2023-03-22T15:17:30.573Z,94269.00
2023-03-22T15:21:30.588Z,94269.00
2023-03-22T15:25:30.543Z,94267.00
2023-03-22T15:29:30.491Z,94273.00
2023-03-22T15:33:30.572Z,94277.00
2023-03-22T15:37:30.539Z,94275.00
2023-03-22T15:41:30.498Z,94275.00
2023-03-22T15:45:30.450Z,94275.00
2023-03-22T15:49:30.434Z,94275.00
2023-03-22T15:53:30.403Z,94273.00
2023-03-22T15:57:30.334Z,94277.00
2023-03-22T16:01:30.423Z,94279.00
2023-03-22T16:05:30.284Z,94281.00
2023-03-22T16:09:30.262Z,94285.00
2023-03-22T16:13:30.206Z,94289.00
2023-03-22T16:17:30.186Z,94289.00
2023-03-22T16:21:30.164Z,94291.00
2023-03-22T16:25:30.120Z,94299.00
2023-03-22T16:29:30.090Z,94299.00
2023-03-22T16:33:30.071Z,94302.00
2023-03-22T16:37:30.036Z,94304.00
2023-03-22T16:41:29.980Z,94306.00
2023-03-22T16:45:29.942Z,94312.00
2023-03-22T16:49:29.978Z,94316.00
2023-03-22T16:53:32.514Z,94318.00
2023-03-22T16:57:31.090Z,94320.00
2023-03-22T17:01:30.146Z,94328.00
2023-03-22T17:05:30.099Z,94334.00
2023-03-22T17:09:30.234Z,94342.00
2023-03-22T17:13:30.516Z,94344.00
2023-03-22T17:17:30.438Z,94346.00
2023-03-22T17:21:30.388Z,94349.00
2023-03-22T17:25:30.401Z,94349.00
2023-03-22T17:29:30.340Z,94355.00
2023-03-22T17:33:31.555Z,94361.00
2023-03-22T17:37:30.396Z,94365.00
2023-03-22T17:41:30.273Z,94367.00
2023-03-22T17:45:31.415Z,94381.00
2023-03-22T17:49:31.186Z,94385.00
2023-03-22T17:54:24.253Z,94391.00
2023-03-22T17:57:56.177Z,94400.00
2023-03-22T18:01:31.122Z,94412.00
2023-03-22T18:05:34.169Z,94422.00
2023-03-22T18:09:30.009Z,94428.00
2023-03-22T18:13:30.007Z,94436.00
2023-03-22T18:17:29.946Z,94443.00
2023-03-22T18:21:29.898Z,94455.00
2023-03-22T18:25:40.044Z,94465.00
2023-03-22T18:29:30.869Z,94475.00
2023-03-22T18:33:30.623Z,94483.00
2023-03-22T18:37:30.135Z,94485.00
2023-03-22T18:41:41.180Z,94489.00
2023-03-22T18:45:52.751Z,94495.00
2023-03-22T18:49:31.142Z,94506.00
2023-03-22T18:53:30.120Z,94508.00
2023-03-22T18:57:32.461Z,94516.00
2023-03-22T19:01:30.327Z,94512.00
2023-03-22T19:05:30.090Z,94516.00
2023-03-22T19:09:30.135Z,94518.00
2023-03-22T19:13:30.043Z,94524.00
2023-03-22T19:17:30.059Z,94528.00
2023-03-22T19:21:32.590Z,94532.00
2023-03-22T19:25:30.050Z,94534.00
2023-03-22T19:29:30.022Z,94536.00
2023-03-22T19:33:41.909Z,94536.00
2023-03-22T19:37:30.989Z,94536.00
2023-03-22T19:41:52.428Z,94542.00
2023-03-22T19:45:30.876Z,94543.00
2023-03-22T19:49:29.846Z,94538.00
2023-03-22T19:54:03.693Z,94538.00
2023-03-22T19:57:30.791Z,94542.00
2023-03-22T20:01:29.767Z,94545.00
2023-03-22T20:05:29.860Z,94545.00
2023-03-22T20:09:29.747Z,94551.00
2023-03-22T20:13:29.908Z,94551.00
2023-03-22T20:17:30.082Z,94551.00
2023-03-22T20:21:30.172Z,94555.00
2023-03-22T20:25:30.264Z,94559.00
2023-03-22T20:29:30.422Z,94561.00
2023-03-22T20:33:30.634Z,94563.00
2023-03-22T20:37:30.857Z,94563.00
2023-03-22T20:41:31.060Z,94569.00
2023-03-22T20:45:31.289Z,94571.00
2023-03-22T20:49:31.252Z,94575.00
2023-03-22T20:53:31.244Z,94577.00
2023-03-22T20:57:31.173Z,94583.00
2023-03-22T21:01:31.154Z,94585.00
2023-03-22T21:05:31.120Z,94589.00
2023-03-22T21:09:31.091Z,94594.00
2023-03-22T21:13:31.069Z,94592.00
2023-03-22T21:17:31.064Z,94596.00
2023-03-22T21:21:32.135Z,94606.00
2023-03-22T21:25:30.950Z,94606.00
2023-03-22T21:29:30.903Z,94608.00
2023-03-22T21:33:30.928Z,94614.00
2023-03-22T21:37:30.883Z,94622.00
2023-03-22T21:41:30.814Z,94620.00
2023-03-22T21:45:30.797Z,94624.00
2023-03-22T21:49:30.740Z,94620.00
2023-03-22T21:53:30.699Z,94626.00
2023-03-22T21:57:30.694Z,94640.00
2023-03-22T22:01:30.885Z,94638.00
2023-03-22T22:05:30.766Z,94642.00
2023-03-22T22:09:30.797Z,94645.00
2023-03-22T22:13:30.727Z,94647.00
2023-03-22T22:17:30.700Z,94642.00
2023-03-22T22:21:30.677Z,94642.00
2023-03-22T22:25:30.593Z,94643.00
2023-03-22T22:29:30.573Z,94645.00
2023-03-22T22:33:30.543Z,94645.00
2023-03-22T22:37:32.189Z,94649.00
2023-03-22T22:41:30.480Z,94645.00
2023-03-22T22:45:30.719Z,94649.00
2023-03-22T22:49:30.410Z,94645.00
2023-03-22T22:53:30.344Z,94647.00
2023-03-22T22:57:30.353Z,94651.00
2023-03-22T23:01:30.333Z,94651.00
2023-03-22T23:05:30.254Z,94647.00
2023-03-22T23:09:30.203Z,94643.00
2023-03-22T23:13:30.162Z,94638.00
2023-03-22T23:17:30.171Z,94638.00
2023-03-22T23:21:30.112Z,94636.00
2023-03-22T23:25:30.098Z,94626.00
2023-03-22T23:29:30.061Z,94628.00
2023-03-22T23:33:30.034Z,94626.00
2023-03-22T23:37:30.068Z,94636.00
2023-03-22T23:41:30.097Z,94628.00
2023-03-22T23:45:30.220Z,94636.00
2023-03-22T23:49:30.282Z,94636.00
2023-03-22T23:53:30.414Z,94640.00
2023-03-22T23:57:30.502Z,94642.00
